Time;durP1;ratioP1;P1;durP2;ratioP2;P2;SDS_P1;SDS_P2;PMS_P1;PMS_P2;Temp;Humidity;BMP_temperature;BMP_pressure;BME280_temperature;BME280_humidity;BME280_pressure;Samples;Min_cycle;Max_cycle;Signal;HPM_P1;HPM_P2
2023/02/15 00:01:30;;;;;;;101.13;30.60;;;4.20;99.90;;;;;;5048631;28;20253;-53
2023/02/15 00:03:58;;;;;;;115.30;31.10;;;4.20;99.90;;;;;;5051308;28;20256;-53
2023/02/15 00:06:26;;;;;;;105.17;29.53;;;4.20;99.90;;;;;;5051282;28;20214;-55
2023/02/15 00:08:53;;;;;;;119.60;31.67;;;4.20;99.90;;;;;;5047499;28;20421;-53
2023/02/15 00:11:39;;;;;;;122.57;30.70;;;4.20;99.90;;;;;;5053216;28;20210;-54
2023/02/15 00:14:07;;;;;;;100.57;29.10;;;4.20;99.90;;;;;;5045236;28;20199;-55
2023/02/15 00:16:34;;;;;;;113.77;30.93;;;4.20;99.90;;;;;;5031601;28;20855;-53
2023/02/15 00:19:03;;;;;;;78.73;29.53;;;4.20;99.90;;;;;;5051033;28;20222;-53
2023/02/15 00:21:31;;;;;;;106.70;30.27;;;4.20;99.90;;;;;;5047145;28;20221;-54
2023/02/15 00:23:59;;;;;;;147.67;34.43;;;4.20;99.90;;;;;;5058270;28;20312;-51
2023/02/15 00:26:26;;;;;;;99.03;29.63;;;4.20;99.90;;;;;;5045696;28;20203;-55
2023/02/15 00:28:54;;;;;;;90.63;30.83;;;4.20;99.90;;;;;;5045615;28;20273;-55
2023/02/15 00:31:21;;;;;;;121.53;31.57;;;4.20;99.90;;;;;;5043369;28;20264;-54
2023/02/15 00:34:11;;;;;;;131.60;31.63;;;4.30;99.90;;;;;;5045276;28;20210;-52
2023/02/15 00:36:38;;;;;;;100.87;30.10;;;4.30;99.90;;;;;;5041295;28;20195;-53
2023/02/15 00:39:05;;;;;;;82.50;30.47;;;4.30;99.90;;;;;;5051069;28;20223;-52
2023/02/15 00:41:33;;;;;;;115.37;30.33;;;4.30;99.90;;;;;;5050854;28;20857;-53
2023/02/15 00:43:59;;;;;;;103.60;31.90;;;4.40;99.90;;;;;;5064931;28;20214;-51
2023/02/15 00:46:27;;;;;;;114.63;33.97;;;4.30;99.90;;;;;;5062523;28;20548;-55
2023/02/15 00:48:53;;;;;;;151.77;33.07;;;4.40;99.90;;;;;;5050108;28;20241;-51
2023/02/15 00:51:22;;;;;;;75.87;30.67;;;4.40;99.90;;;;;;5046813;28;20206;-53
2023/02/15 00:53:48;;;;;;;122.20;32.97;;;4.40;99.90;;;;;;5047534;28;20202;-53
2023/02/15 00:56:15;;;;;;;143.63;33.27;;;4.40;99.90;;;;;;5044403;28;20206;-55
2023/02/15 00:58:43;;;;;;;131.93;35.17;;;4.40;99.90;;;;;;5047028;28;20389;-53
2023/02/15 01:01:13;;;;;;;86.70;31.37;;;4.40;99.90;;;;;;5044615;28;20226;-52
2023/02/15 01:03:41;;;;;;;124.50;32.63;;;4.40;99.90;;;;;;5030090;28;20348;-55
2023/02/15 01:06:10;;;;;;;130.20;34.20;;;4.40;99.90;;;;;;5053767;28;20324;-53
2023/02/15 01:08:38;;;;;;;135.00;35.93;;;4.40;99.90;;;;;;5049179;28;20233;-55
2023/02/15 01:11:06;;;;;;;162.90;34.60;;;4.40;99.90;;;;;;5051659;28;20211;-51
2023/02/15 01:13:33;;;;;;;172.73;34.27;;;4.50;99.90;;;;;;5059287;28;20203;-51
2023/02/15 01:16:00;;;;;;;127.40;32.43;;;4.50;99.90;;;;;;5064802;28;20221;-50
2023/02/15 01:18:27;;;;;;;112.13;32.20;;;4.50;99.90;;;;;;5049177;28;20230;-54
2023/02/15 01:20:54;;;;;;;121.80;32.97;;;4.50;99.90;;;;;;5052858;28;20205;-52
2023/02/15 01:23:21;;;;;;;225.33;37.90;;;4.50;99.90;;;;;;5037568;28;20219;-53
2023/02/15 01:25:50;;;;;;;97.77;33.00;;;4.50;99.90;;;;;;5044057;28;20273;-52
2023/02/15 01:28:17;;;;;;;96.70;30.57;;;4.50;99.90;;;;;;5050624;28;20219;-52
2023/02/15 01:31:06;;;;;;;119.80;30.23;;;4.50;99.90;;;;;;5044503;28;20775;-50
2023/02/15 01:33:34;;;;;;;103.70;33.60;;;4.50;99.90;;;;;;5040414;28;20188;-52
2023/02/15 01:36:03;;;;;;;124.70;33.47;;;4.50;99.90;;;;;;5038600;28;20211;-53
2023/02/15 01:38:29;;;;;;;151.50;33.80;;;4.50;99.90;;;;;;5044219;28;20227;-54
2023/02/15 01:41:19;;;;;;;128.77;33.90;;;4.50;99.90;;;;;;5050290;28;20211;-51
2023/02/15 01:43:48;;;;;;;151.17;34.00;;;4.50;99.90;;;;;;5040952;28;20242;-51
2023/02/15 01:46:18;;;;;;;145.83;33.40;;;4.50;99.90;;;;;;5044143;28;20214;-54
2023/02/15 01:48:48;;;;;;;139.87;32.90;;;4.50;99.90;;;;;;5041133;28;20219;-53
2023/02/15 01:51:20;;;;;;;214.80;35.83;;;4.50;99.90;;;;;;5036496;28;20199;-54
2023/02/15 01:53:51;;;;;;;197.03;35.00;;;4.50;99.90;;;;;;5042578;28;20205;-50
2023/02/15 01:56:22;;;;;;;136.57;32.60;;;4.50;99.90;;;;;;5050047;28;20210;-55
2023/02/15 01:58:52;;;;;;;170.83;34.50;;;4.50;99.90;;;;;;5041921;28;20227;-53
2023/02/15 02:01:20;;;;;;;155.17;32.27;;;4.50;99.90;;;;;;5042123;28;20273;-55
2023/02/15 02:03:56;;;;;;;181.33;34.40;;;4.50;99.90;;;;;;5042072;28;21020;-52
2023/02/15 02:06:24;;;;;;;168.40;33.77;;;4.50;99.90;;;;;;5033163;28;20211;-55
2023/02/15 02:08:52;;;;;;;157.73;33.30;;;4.50;99.90;;;;;;5046803;28;20222;-53
2023/02/15 02:11:20;;;;;;;87.63;31.00;;;4.50;99.90;;;;;;5041560;28;20223;-54
2023/02/15 02:13:48;;;;;;;104.37;29.67;;;4.50;99.90;;;;;;5051396;28;21024;-55
2023/02/15 02:16:23;;;;;;;135.63;31.03;;;4.50;99.90;;;;;;5063293;28;20278;-55
2023/02/15 02:19:02;;;;;;;138.13;31.90;;;4.60;99.90;;;;;;5042688;28;20233;-55
2023/02/15 02:22:06;;;;;;;124.17;29.40;;;4.50;99.90;;;;;;5028530;28;21117;-55
2023/02/15 02:25:24;;;;;;;155.10;31.67;;;4.50;99.90;;;;;;5013591;28;20296;-52
2023/02/15 02:28:02;;;;;;;144.90;31.43;;;4.40;99.90;;;;;;5047955;28;20732;-53
2023/02/15 02:30:56;;;;;;;203.50;34.07;;;4.50;99.90;;;;;;5039790;28;20187;-50
2023/02/15 02:33:39;;;;;;;230.00;37.07;;;4.50;99.90;;;;;;5039699;28;20200;-53
2023/02/15 02:36:16;;;;;;;184.93;32.63;;;4.40;99.90;;;;;;5042539;28;20641;-52
2023/02/15 02:39:01;;;;;;;154.97;32.07;;;4.40;99.90;;;;;;5034166;28;20245;-53
2023/02/15 02:41:39;;;;;;;183.30;33.37;;;4.50;99.90;;;;;;5043479;28;20203;-52
2023/02/15 02:44:15;;;;;;;189.77;32.70;;;4.50;99.90;;;;;;5049081;28;20558;-54
2023/02/15 02:46:49;;;;;;;149.17;31.43;;;4.40;99.90;;;;;;5061680;28;20204;-54
2023/02/15 02:49:18;;;;;;;189.13;31.70;;;4.40;99.90;;;;;;5060716;28;20222;-54
2023/02/15 02:51:45;;;;;;;149.53;35.57;;;4.40;99.90;;;;;;5062477;28;20559;-55
2023/02/15 02:54:12;;;;;;;92.20;30.80;;;4.40;99.90;;;;;;5045598;28;20565;-53
2023/02/15 02:56:44;;;;;;;168.83;32.27;;;4.40;99.90;;;;;;5041483;28;20222;-51
2023/02/15 02:59:16;;;;;;;100.07;30.07;;;4.40;99.90;;;;;;5040741;28;20599;-53
2023/02/15 03:01:48;;;;;;;101.07;30.20;;;4.40;99.90;;;;;;5042862;28;20274;-54
2023/02/15 03:04:19;;;;;;;160.53;31.83;;;4.50;99.90;;;;;;5039842;28;20215;-56
2023/02/15 03:06:51;;;;;;;166.50;32.57;;;4.50;99.90;;;;;;5042108;28;20597;-55
2023/02/15 03:09:24;;;;;;;93.30;30.33;;;4.50;99.90;;;;;;5031214;28;20205;-54
2023/02/15 03:11:53;;;;;;;198.00;35.10;;;4.40;99.90;;;;;;5062156;28;20887;-53
2023/02/15 03:14:22;;;;;;;143.40;31.50;;;4.40;99.90;;;;;;5036847;28;20598;-55
2023/02/15 03:16:51;;;;;;;183.93;34.87;;;4.40;99.90;;;;;;5042407;28;20218;-52
2023/02/15 03:19:24;;;;;;;274.70;37.30;;;4.40;99.90;;;;;;5040803;28;20187;-54
2023/02/15 03:22:03;;;;;;;150.57;30.53;;;4.40;99.90;;;;;;5043635;28;20210;-55
2023/02/15 03:24:34;;;;;;;135.87;30.47;;;4.40;99.90;;;;;;5048279;28;20232;-52
2023/02/15 03:27:04;;;;;;;87.40;28.90;;;4.40;99.90;;;;;;5037133;28;20232;-54
2023/02/15 03:29:33;;;;;;;121.87;29.33;;;4.30;99.90;;;;;;5033963;28;20198;-53
2023/02/15 03:32:03;;;;;;;179.50;31.50;;;4.40;99.90;;;;;;5043617;28;20566;-51
2023/02/15 03:34:32;;;;;;;106.23;30.53;;;4.30;99.90;;;;;;5039174;28;20916;-52
2023/02/15 03:37:08;;;;;;;161.77;34.17;;;4.40;99.90;;;;;;5043343;28;20249;-52
2023/02/15 03:39:39;;;;;;;204.20;33.47;;;4.30;99.90;;;;;;5040184;28;20210;-55
2023/02/15 03:42:12;;;;;;;165.73;32.87;;;4.40;99.90;;;;;;5037152;28;20203;-54
2023/02/15 03:44:49;;;;;;;239.73;36.43;;;4.40;99.90;;;;;;5045707;28;20233;-53
2023/02/15 03:47:20;;;;;;;176.17;34.03;;;4.40;99.90;;;;;;5040803;28;20219;-55
2023/02/15 03:49:54;;;;;;;195.53;32.57;;;4.40;99.90;;;;;;5042410;28;20241;-54
2023/02/15 03:52:28;;;;;;;138.60;31.63;;;4.40;99.90;;;;;;5039029;28;20204;-54
2023/02/15 03:54:55;;;;;;;188.97;34.23;;;4.40;99.90;;;;;;5040922;28;20234;-53
2023/02/15 04:03:20;;;;;;;106.90;29.20;;;4.40;99.90;;;;;;5042472;28;20204;-52
2023/02/15 04:05:49;;;;;;;191.27;32.70;;;4.40;99.90;;;;;;5043412;28;20237;-53
2023/02/15 04:08:16;;;;;;;132.17;29.57;;;4.30;99.90;;;;;;5041303;28;20227;-52
2023/02/15 04:10:55;;;;;;;107.73;29.90;;;4.30;99.90;;;;;;5046676;28;20257;-54
2023/02/15 04:13:24;;;;;;;116.27;29.87;;;4.30;99.90;;;;;;5046486;28;20194;-53
2023/02/15 04:16:05;;;;;;;145.73;31.33;;;4.30;99.90;;;;;;5057896;28;20199;-50
2023/02/15 04:26:52;;;;;;;142.13;30.60;;;4.30;99.90;;;;;;5051385;28;20210;-55
2023/02/15 04:29:19;;;;;;;152.63;31.67;;;4.30;99.90;;;;;;5032207;28;22028;-53
2023/02/15 04:31:46;;;;;;;111.53;29.47;;;4.30;99.90;;;;;;5043404;28;20214;-54
2023/02/15 04:34:12;;;;;;;155.73;31.43;;;4.40;99.90;;;;;;5048913;28;20195;-55
2023/02/15 04:36:43;;;;;;;173.57;34.60;;;4.30;99.90;;;;;;5044731;28;20203;-55
2023/02/15 04:39:13;;;;;;;177.50;34.53;;;4.30;99.90;;;;;;5050115;28;20218;-54
2023/02/15 04:41:40;;;;;;;146.23;29.63;;;4.30;99.90;;;;;;5064010;28;20202;-55
2023/02/15 04:44:07;;;;;;;94.27;28.80;;;4.30;99.90;;;;;;5062228;28;20226;-51
2023/02/15 04:46:34;;;;;;;122.53;29.57;;;4.30;99.90;;;;;;5040739;28;20685;-54
2023/02/15 04:49:01;;;;;;;149.43;30.10;;;4.30;99.90;;;;;;5034884;28;20218;-53
2023/02/15 04:51:28;;;;;;;125.23;31.43;;;4.30;99.90;;;;;;5051067;28;20600;-54
2023/02/15 04:53:56;;;;;;;122.90;29.77;;;4.30;99.90;;;;;;5039192;28;20207;-55
2023/02/15 04:56:23;;;;;;;148.33;30.90;;;4.30;99.90;;;;;;5055615;28;20253;-54
2023/02/15 04:58:49;;;;;;;105.97;29.87;;;4.30;99.90;;;;;;5041618;28;20211;-51
2023/02/15 05:01:16;;;;;;;74.43;28.13;;;4.30;99.90;;;;;;5031414;28;20215;-51
2023/02/15 05:03:43;;;;;;;96.60;30.00;;;4.20;99.90;;;;;;5044104;28;20207;-53
2023/02/15 05:06:10;;;;;;;91.37;28.23;;;4.30;99.90;;;;;;5045330;28;20276;-51
2023/02/15 05:08:37;;;;;;;174.37;32.87;;;4.30;99.90;;;;;;5045968;28;20293;-54
2023/02/15 05:11:05;;;;;;;159.33;29.63;;;4.30;99.90;;;;;;5047937;28;20285;-53
2023/02/15 05:13:31;;;;;;;77.60;28.13;;;4.30;99.90;;;;;;5044092;28;20211;-55
2023/02/15 05:15:59;;;;;;;156.33;32.97;;;4.30;99.90;;;;;;5031403;28;20207;-55
2023/02/15 05:18:26;;;;;;;88.37;28.43;;;4.30;99.90;;;;;;5057241;28;20269;-54
2023/02/15 05:20:52;;;;;;;111.43;29.33;;;4.30;99.90;;;;;;5032425;28;20199;-55
2023/02/15 05:23:19;;;;;;;64.50;27.07;;;4.30;99.90;;;;;;5047920;28;20587;-52
2023/02/15 05:28:36;;;;;;;92.83;26.50;;;4.30;99.90;;;;;;5032182;28;20237;-55
2023/02/15 05:31:08;;;;;;;88.00;26.40;;;4.20;99.90;;;;;;5052540;28;20194;-55
2023/02/15 05:33:35;;;;;;;78.50;26.97;;;4.20;99.90;;;;;;5047845;28;20218;-54
2023/02/15 05:36:03;;;;;;;142.97;29.77;;;4.30;99.90;;;;;;5042938;28;20211;-53
2023/02/15 05:38:31;;;;;;;117.03;29.30;;;4.30;99.90;;;;;;5044904;28;20926;-53
2023/02/15 05:40:58;;;;;;;142.13;29.53;;;4.20;99.90;;;;;;5041935;28;20207;-55
2023/02/15 05:43:25;;;;;;;223.57;33.57;;;4.20;99.90;;;;;;5046104;28;20190;-52
2023/02/15 05:46:14;;;;;;;228.00;32.60;;;4.20;99.90;;;;;;5047165;28;20246;-53
2023/02/15 05:49:02;;;;;;;188.27;29.63;;;4.20;99.90;;;;;;5038934;28;20233;-55
2023/02/15 05:51:28;;;;;;;182.13;29.13;;;4.10;99.90;;;;;;5051502;28;20194;-52
2023/02/15 05:53:55;;;;;;;150.90;27.07;;;4.20;99.90;;;;;;5052921;28;20604;-53
2023/02/15 05:56:22;;;;;;;126.53;27.07;;;4.10;99.90;;;;;;5043836;28;20188;-55
2023/02/15 05:58:49;;;;;;;229.13;30.27;;;4.10;99.90;;;;;;5050697;28;20223;-55
2023/02/15 06:01:22;;;;;;;252.07;30.70;;;4.10;99.90;;;;;;5047279;28;20230;-52
2023/02/15 06:03:49;;;;;;;232.30;31.17;;;4.00;99.90;;;;;;5046025;28;20308;-53
2023/02/15 06:06:38;;;;;;;175.30;26.90;;;4.00;99.90;;;;;;5046690;28;20206;-51
2023/02/15 06:09:05;;;;;;;131.07;27.03;;;3.90;99.90;;;;;;5043260;28;20241;-55
2023/02/15 06:11:32;;;;;;;227.40;31.67;;;4.00;99.90;;;;;;5045096;28;20861;-53
2023/02/15 06:13:58;;;;;;;100.80;26.30;;;4.00;99.90;;;;;;5049467;28;20203;-54
2023/02/15 06:16:26;;;;;;;111.13;26.17;;;3.90;99.90;;;;;;5060571;28;20186;-52
2023/02/15 06:18:53;;;;;;;78.83;24.73;;;4.00;99.90;;;;;;5046039;28;20295;-53
2023/02/15 06:21:20;;;;;;;80.13;23.97;;;4.00;99.90;;;;;;5043573;28;20203;-54
2023/02/15 06:23:47;;;;;;;140.67;27.03;;;4.00;99.90;;;;;;5049888;28;20569;-51
2023/02/15 06:26:14;;;;;;;125.00;29.27;;;4.00;99.90;;;;;;5048226;28;20215;-56
2023/02/15 06:28:41;;;;;;;125.53;25.33;;;4.10;99.90;;;;;;5054605;28;20226;-52
2023/02/15 06:31:08;;;;;;;86.77;27.97;;;4.00;99.90;;;;;;5051835;28;20612;-56
2023/02/15 06:33:36;;;;;;;78.87;27.53;;;4.00;99.90;;;;;;5030934;28;22487;-52
2023/02/15 06:36:04;;;;;;;77.77;26.30;;;4.00;99.90;;;;;;5049765;28;20325;-56
2023/02/15 06:38:31;;;;;;;81.13;26.30;;;4.00;99.90;;;;;;5040512;28;20223;-54
2023/02/15 06:40:58;;;;;;;89.03;24.83;;;4.10;99.90;;;;;;5051216;28;20234;-53
2023/02/15 06:43:25;;;;;;;78.03;24.60;;;4.00;99.90;;;;;;5045424;28;20365;-55
2023/02/15 06:45:51;;;;;;;145.70;27.07;;;4.00;99.90;;;;;;5055547;28;20227;-52
2023/02/15 06:48:18;;;;;;;108.83;26.37;;;4.00;99.90;;;;;;5042515;28;20218;-53
2023/02/15 06:50:46;;;;;;;96.10;25.27;;;4.00;99.90;;;;;;5038056;28;20195;-51
2023/02/15 06:53:15;;;;;;;213.87;30.03;;;4.00;99.90;;;;;;5045314;28;20657;-51
2023/02/15 06:55:42;;;;;;;208.70;32.07;;;4.00;99.90;;;;;;5036560;28;20273;-56
2023/02/15 06:58:09;;;;;;;90.93;24.43;;;3.90;99.90;;;;;;5041841;28;20231;-53
2023/02/15 07:00:36;;;;;;;135.07;26.77;;;3.90;99.90;;;;;;5045687;28;20203;-54
2023/02/15 07:03:03;;;;;;;113.47;25.63;;;3.90;99.90;;;;;;5048582;28;20233;-52
2023/02/15 07:05:33;;;;;;;161.97;27.63;;;3.90;99.90;;;;;;5036166;28;20215;-54
2023/02/15 07:08:20;;;;;;;78.47;24.00;;;3.80;99.90;;;;;;5052123;28;20226;-53
2023/02/15 07:10:49;;;;;;;102.27;23.83;;;3.80;99.90;;;;;;5043135;28;20962;-52
2023/02/15 07:13:15;;;;;;;145.30;26.53;;;3.80;99.90;;;;;;5049927;28;20672;-52
2023/02/15 07:16:00;;;;;;;131.37;28.10;;;3.80;99.90;;;;;;5056945;28;20205;-55
2023/02/15 07:18:27;;;;;;;119.47;25.73;;;3.70;99.90;;;;;;5060663;28;20689;-54
2023/02/15 07:20:54;;;;;;;100.13;24.77;;;3.70;99.90;;;;;;5039663;28;20937;-52
2023/02/15 07:23:25;;;;;;;127.13;24.97;;;3.70;99.90;;;;;;5045705;28;20199;-54
2023/02/15 07:25:57;;;;;;;132.60;25.17;;;3.70;99.90;;;;;;5033531;28;20581;-52
2023/02/15 07:28:24;;;;;;;87.83;25.33;;;3.70;99.90;;;;;;5043575;28;20215;-55
2023/02/15 07:30:51;;;;;;;94.53;23.83;;;3.70;99.90;;;;;;5041494;28;20203;-55
2023/02/15 07:33:23;;;;;;;122.80;26.47;;;3.70;99.90;;;;;;5041628;28;20202;-55
2023/02/15 07:35:53;;;;;;;154.50;26.03;;;3.70;99.90;;;;;;5032642;28;20209;-52
2023/02/15 07:38:21;;;;;;;95.20;23.17;;;3.70;99.90;;;;;;5051659;28;20216;-52
2023/02/15 07:40:49;;;;;;;120.63;26.80;;;3.70;99.90;;;;;;5037371;28;20208;-51
2023/02/15 07:43:17;;;;;;;133.60;24.30;;;3.70;99.90;;;;;;5059004;28;20286;-54
2023/02/15 07:45:44;;;;;;;87.17;23.03;;;3.70;99.90;;;;;;5051500;28;20230;-50
2023/02/15 07:48:11;;;;;;;78.70;23.13;;;3.60;99.90;;;;;;5054975;28;20256;-55
2023/02/15 07:50:59;;;;;;;93.80;22.53;;;3.70;99.90;;;;;;5039836;28;20218;-55
2023/02/15 07:53:26;;;;;;;75.23;23.50;;;3.70;99.90;;;;;;5050859;28;20199;-55
2023/02/15 07:55:54;;;;;;;133.13;25.07;;;3.60;99.90;;;;;;5050741;28;20715;-56
2023/02/15 07:58:50;;;;;;;51.70;23.87;;;3.70;99.90;;;;;;5047775;28;20219;-55
2023/02/15 08:01:09;;;;;;;125.77;26.57;;;3.70;99.90;;;;;;5046154;28;20209;-54
2023/02/15 08:03:35;;;;;;;78.87;25.60;;;3.70;99.90;;;;;;5046525;28;21054;-51
2023/02/15 08:06:02;;;;;;;117.20;26.33;;;3.70;99.90;;;;;;5051114;28;20245;-52
2023/02/15 08:08:31;;;;;;;105.07;25.07;;;3.70;99.90;;;;;;5036158;28;20210;-56
2023/02/15 08:13:53;;;;;;;134.13;27.07;;;3.60;99.90;;;;;;5064000;28;20275;-54
2023/02/15 08:16:24;;;;;;;158.57;29.07;;;3.60;99.90;;;;;;5061120;28;20209;-55
2023/02/15 08:18:52;;;;;;;60.90;24.93;;;3.70;99.90;;;;;;5058312;28;20245;-53
2023/02/15 08:21:19;;;;;;;131.10;27.47;;;3.60;99.90;;;;;;5063616;28;20277;-50
2023/02/15 08:23:46;;;;;;;93.27;25.30;;;3.70;99.90;;;;;;5043116;28;20282;-55
2023/02/15 08:26:16;;;;;;;150.13;29.57;;;3.60;99.90;;;;;;5046328;28;20272;-55
2023/02/15 08:28:46;;;;;;;113.53;26.10;;;3.60;99.90;;;;;;5044674;28;20213;-53
2023/02/15 08:31:37;;;;;;;82.70;26.40;;;3.60;99.90;;;;;;5045836;28;20218;-51
2023/02/15 08:34:04;;;;;;;106.10;27.60;;;3.70;99.90;;;;;;5062389;28;20211;-56
2023/02/15 08:36:32;;;;;;;111.77;25.53;;;3.70;99.90;;;;;;5054466;28;20191;-55
2023/02/15 08:39:00;;;;;;;100.27;27.40;;;3.60;99.90;;;;;;5039684;28;20257;-54
2023/02/15 08:41:31;;;;;;;79.13;26.33;;;3.70;99.90;;;;;;5052592;28;20205;-54
2023/02/15 08:44:00;;;;;;;54.00;25.77;;;3.70;99.90;;;;;;5045949;28;20682;-55
2023/02/15 08:46:28;;;;;;;79.63;27.13;;;3.70;99.90;;;;;;5042656;28;20698;-51
2023/02/15 08:48:56;;;;;;;74.87;25.43;;;3.70;99.90;;;;;;5048381;28;20237;-53
2023/02/15 08:51:24;;;;;;;99.40;25.80;;;3.80;99.90;;;;;;5043010;28;20204;-56
2023/02/15 08:53:53;;;;;;;107.90;25.60;;;3.80;99.90;;;;;;5033534;28;20290;-54
2023/02/15 08:56:21;;;;;;;98.73;26.30;;;3.80;99.90;;;;;;5047967;28;20261;-54
2023/02/15 08:58:50;;;;;;;95.37;26.47;;;3.80;99.90;;;;;;5045026;28;20265;-54
2023/02/15 09:01:21;;;;;;;144.67;28.37;;;3.80;99.90;;;;;;5044104;28;20578;-55
2023/02/15 09:03:52;;;;;;;158.30;27.17;;;3.70;99.90;;;;;;5039949;28;20199;-52
2023/02/15 09:06:20;;;;;;;86.30;26.73;;;3.70;99.90;;;;;;5059155;28;20223;-55
2023/02/15 09:08:47;;;;;;;76.03;24.57;;;3.80;99.90;;;;;;5041687;28;20223;-51
2023/02/15 09:11:22;;;;;;;92.30;26.47;;;3.80;99.90;;;;;;5056383;28;20210;-55
2023/02/15 09:13:53;;;;;;;63.77;25.23;;;3.80;99.90;;;;;;5044845;28;20233;-51
2023/02/15 09:16:21;;;;;;;92.93;26.17;;;3.80;99.90;;;;;;5043370;28;20192;-55
2023/02/15 09:18:48;;;;;;;89.83;26.57;;;3.80;99.90;;;;;;5044513;28;20212;-53
2023/02/15 09:21:17;;;;;;;102.77;27.80;;;3.80;99.90;;;;;;5047762;28;20205;-54
2023/02/15 09:23:46;;;;;;;118.50;26.30;;;3.90;99.90;;;;;;5061534;28;20277;-51
2023/02/15 09:26:14;;;;;;;154.47;27.60;;;3.80;99.90;;;;;;5042890;28;20687;-56
2023/02/15 09:28:43;;;;;;;62.47;26.00;;;3.90;99.90;;;;;;5043280;28;20409;-52
2023/02/15 09:31:13;;;;;;;106.17;28.10;;;3.80;99.90;;;;;;5045102;28;20274;-53
2023/02/15 09:33:41;;;;;;;90.73;27.40;;;3.80;99.90;;;;;;5042544;28;20214;-55
2023/02/15 09:36:17;;;;;;;104.27;26.80;;;3.90;99.90;;;;;;5046241;28;20275;-54
2023/02/15 09:38:44;;;;;;;64.67;25.73;;;3.90;99.90;;;;;;5049821;28;20854;-54
2023/02/15 09:41:44;;;;;;;92.33;27.67;;;3.90;99.90;;;;;;5036058;28;20203;-55
2023/02/15 09:44:19;;;;;;;76.33;28.00;;;3.90;99.90;;;;;;4996925;28;20213;-55
2023/02/15 09:47:06;;;;;;;86.03;26.57;;;3.90;99.90;;;;;;5043606;28;20218;-53
2023/02/15 09:49:46;;;;;;;130.50;27.23;;;3.90;99.90;;;;;;5040965;28;20274;-55
2023/02/15 09:52:25;;;;;;;206.40;29.77;;;3.90;99.90;;;;;;5056820;28;20198;-51
2023/02/15 09:55:02;;;;;;;89.60;28.33;;;3.90;99.90;;;;;;5063684;28;20206;-54
2023/02/15 09:57:38;;;;;;;138.50;29.43;;;3.90;99.90;;;;;;5045142;28;20214;-52
2023/02/15 10:00:14;;;;;;;67.03;28.13;;;4.00;99.90;;;;;;5047404;28;20210;-55
2023/02/15 10:03:04;;;;;;;90.43;28.13;;;4.00;99.90;;;;;;5042349;28;20286;-54
2023/02/15 10:05:41;;;;;;;69.53;26.37;;;4.00;99.90;;;;;;5054455;28;20206;-52
2023/02/15 10:08:32;;;;;;;63.03;26.83;;;4.00;99.90;;;;;;5047816;28;20223;-56
2023/02/15 10:13:59;;;;;;;95.40;28.53;;;4.00;99.90;;;;;;5034923;28;20697;-53
2023/02/15 10:16:35;;;;;;;80.37;27.93;;;4.00;99.90;;;;;;5046704;28;20253;-55
2023/02/15 10:19:12;;;;;;;93.23;28.53;;;4.00;99.90;;;;;;5044467;28;20268;-52
2023/02/15 10:21:50;;;;;;;77.90;29.43;;;4.00;99.90;;;;;;5054169;28;20204;-52
2023/02/15 10:24:30;;;;;;;86.70;30.70;;;4.00;99.90;;;;;;5060882;28;20692;-53
2023/02/15 10:27:06;;;;;;;77.87;32.00;;;4.00;99.90;;;;;;5063327;28;20214;-54
2023/02/15 10:29:37;;;;;;;83.90;32.43;;;4.10;99.90;;;;;;5035341;28;20199;-52
2023/02/15 10:32:16;;;;;;;84.87;32.70;;;4.20;99.90;;;;;;5049293;28;20217;-51
2023/02/15 10:34:51;;;;;;;67.13;32.10;;;4.20;99.90;;;;;;5061241;28;20281;-52
2023/02/15 10:37:38;;;;;;;68.97;32.47;;;4.20;99.90;;;;;;5052393;28;20206;-54
2023/02/15 10:40:12;;;;;;;69.87;31.33;;;4.30;99.90;;;;;;5045782;28;20249;-53
2023/02/15 10:43:00;;;;;;;66.03;31.40;;;4.30;99.90;;;;;;5041083;28;20191;-55
2023/02/15 10:45:38;;;;;;;88.03;35.87;;;4.30;99.90;;;;;;5035791;28;20676;-52
2023/02/15 10:48:23;;;;;;;75.53;33.67;;;4.40;99.90;;;;;;5043897;28;20235;-50
2023/02/15 10:50:54;;;;;;;73.03;34.60;;;4.40;99.90;;;;;;5043120;28;20199;-56
2023/02/15 10:54:00;;;;;;;81.63;34.83;;;4.40;99.90;;;;;;5041379;28;20278;-54
2023/02/15 10:56:35;;;;;;;72.07;32.07;;;4.40;99.90;;;;;;5054581;28;20665;-52
2023/02/15 10:59:16;;;;;;;63.37;32.40;;;4.40;99.90;;;;;;5047599;28;20568;-50
2023/02/15 11:01:47;;;;;;;63.67;31.97;;;4.40;99.90;;;;;;5047448;28;20210;-51
2023/02/15 11:04:40;;;;;;;62.57;31.73;;;4.50;99.90;;;;;;5042638;28;20583;-53
2023/02/15 11:07:19;;;;;;;71.40;33.53;;;4.50;99.90;;;;;;5044555;28;20261;-55
2023/02/15 11:09:51;;;;;;;62.40;28.67;;;4.60;99.90;;;;;;5051430;28;20211;-52
2023/02/15 11:12:23;;;;;;;71.00;32.43;;;4.60;99.90;;;;;;5041817;28;20203;-54
2023/02/15 11:14:55;;;;;;;67.57;30.33;;;4.50;99.90;;;;;;5032603;28;20217;-53
2023/02/15 11:17:27;;;;;;;62.07;31.83;;;4.60;99.90;;;;;;5047824;28;20310;-54
2023/02/15 11:20:02;;;;;;;58.63;28.90;;;4.60;99.90;;;;;;5047902;28;20249;-51
2023/02/15 11:22:32;;;;;;;57.93;28.73;;;4.60;99.90;;;;;;5042234;28;20206;-51
2023/02/15 11:25:02;;;;;;;58.90;30.40;;;4.50;99.90;;;;;;5047421;28;20245;-54
2023/02/15 11:27:33;;;;;;;68.83;32.03;;;4.50;99.90;;;;;;5043292;28;20211;-53
2023/02/15 11:30:04;;;;;;;71.87;33.10;;;4.40;99.90;;;;;;5047783;28;20203;-53
2023/02/15 11:32:33;;;;;;;77.00;34.20;;;4.40;99.90;;;;;;5033316;28;20325;-51
2023/02/15 11:35:04;;;;;;;64.40;32.50;;;4.60;99.90;;;;;;5047909;28;20201;-51
2023/02/15 11:37:39;;;;;;;73.00;35.40;;;4.70;99.90;;;;;;5048669;28;20290;-53
2023/02/15 11:40:20;;;;;;;74.73;34.77;;;4.90;99.90;;;;;;5053259;28;20293;-53
2023/02/15 11:42:50;;;;;;;70.07;33.80;;;5.00;99.90;;;;;;5059594;28;20597;-54
2023/02/15 11:45:25;;;;;;;70.73;35.17;;;5.10;99.90;;;;;;5060224;28;20611;-55
2023/02/15 11:47:53;;;;;;;74.33;34.90;;;5.10;99.90;;;;;;5039320;28;20240;-51
2023/02/15 11:50:23;;;;;;;68.13;35.90;;;5.20;99.90;;;;;;5055281;28;20195;-55
2023/02/15 11:52:52;;;;;;;69.57;32.30;;;5.30;99.90;;;;;;5051632;28;20213;-53
2023/02/15 11:55:23;;;;;;;70.20;34.53;;;5.40;99.90;;;;;;5064222;28;20281;-55
2023/02/15 11:57:55;;;;;;;71.43;35.93;;;5.40;99.90;;;;;;5065905;28;20682;-55
2023/02/15 12:00:35;;;;;;;69.23;35.50;;;5.50;99.90;;;;;;5063599;28;20765;-55
2023/02/15 12:03:08;;;;;;;61.10;33.20;;;5.60;99.90;;;;;;5047019;28;20203;-55
2023/02/15 12:05:38;;;;;;;66.07;36.10;;;5.60;99.90;;;;;;5045334;28;20196;-53
2023/02/15 12:08:14;;;;;;;63.50;33.70;;;5.60;99.90;;;;;;5048980;28;20232;-54
2023/02/15 12:10:47;;;;;;;63.13;34.03;;;5.70;99.90;;;;;;5045909;28;20703;-52
2023/02/15 12:13:17;;;;;;;65.67;33.13;;;5.70;99.90;;;;;;5044972;28;20202;-52
2023/02/15 12:15:48;;;;;;;62.40;32.87;;;5.80;99.90;;;;;;5044683;28;20789;-54
2023/02/15 12:18:26;;;;;;;68.00;33.87;;;5.80;99.90;;;;;;5036229;28;20223;-54
2023/02/15 12:20:58;;;;;;;65.87;34.17;;;5.90;99.90;;;;;;5057411;28;20206;-55
2023/02/15 12:23:29;;;;;;;65.90;35.23;;;6.00;99.90;;;;;;5044169;28;20233;-56
2023/02/15 12:25:58;;;;;;;67.03;35.50;;;6.10;99.90;;;;;;5065685;28;20580;-55
2023/02/15 12:28:27;;;;;;;62.33;33.53;;;6.20;99.90;;;;;;5061384;28;20222;-54
2023/02/15 12:30:56;;;;;;;60.30;33.77;;;6.30;99.90;;;;;;5065816;28;20199;-55
2023/02/15 12:33:29;;;;;;;55.90;32.97;;;6.30;99.90;;;;;;5032536;28;20206;-55
2023/02/15 12:36:00;;;;;;;59.43;32.93;;;6.40;99.90;;;;;;5053417;28;20200;-55
2023/02/15 12:38:30;;;;;;;61.23;32.93;;;6.40;99.90;;;;;;5047597;28;20289;-55
2023/02/15 12:41:02;;;;;;;63.50;33.20;;;6.50;99.90;;;;;;5049984;28;20199;-53
2023/02/15 12:43:32;;;;;;;60.13;32.47;;;6.50;99.90;;;;;;5041957;28;20953;-55
2023/02/15 12:46:22;;;;;;;56.73;32.33;;;6.50;99.90;;;;;;5046246;28;20646;-54
2023/02/15 12:49:07;;;;;;;60.23;32.57;;;6.70;99.90;;;;;;5035697;28;20295;-53
2023/02/15 12:51:45;;;;;;;51.80;31.43;;;6.80;99.90;;;;;;5047831;28;20187;-52
2023/02/15 12:54:30;;;;;;;55.03;29.67;;;6.90;99.90;;;;;;5043753;28;20202;-53
2023/02/15 12:56:58;;;;;;;51.87;30.73;;;7.00;99.90;;;;;;5065103;28;20656;-54
2023/02/15 12:59:25;;;;;;;51.67;29.63;;;7.10;99.90;;;;;;5061584;28;20194;-52
2023/02/15 13:01:54;;;;;;;45.97;27.53;;;7.20;99.90;;;;;;5059789;28;20241;-55
2023/02/15 13:04:25;;;;;;;51.03;29.40;;;7.30;99.90;;;;;;5033637;28;20276;-55
2023/02/15 13:06:55;;;;;;;52.40;30.10;;;7.30;99.90;;;;;;5056227;28;20222;-53
2023/02/15 13:09:35;;;;;;;52.23;29.97;;;7.40;99.90;;;;;;5045288;28;20218;-54
2023/02/15 13:12:16;;;;;;;50.00;29.50;;;7.50;99.90;;;;;;5065033;28;20745;-52
2023/02/15 13:14:46;;;;;;;52.57;28.73;;;7.60;99.90;;;;;;5062977;28;20197;-53
2023/02/15 13:17:17;;;;;;;50.97;30.40;;;7.70;99.90;;;;;;5063575;28;20202;-53